Aviation Digital Data Service (ADDS)

Output produced by METARs form (1241 UTC 22 February 2018)
found at http://www.aviationweather.gov/adds/metars/
 
LSMA 221150Z AUTO 02008G18KT 330V060 ////NDV -SN FEW018 BKN021 OVC026 M01/M05 Q1010 RMK MIS
LSZB 221220Z 05010KT 320V120 6000 -SN BKN013 OVC049 M02/M06 Q1009 NOSIG
TAF AMD LSZB 221217Z 2212/2221 06007KT 8000 BKN020 
     TEMPO 2212/2221 4500 -SN BKN014
       
LSMD 221150Z VRB09KT 7000 BKN019 M02/M06 Q1011 RMK WHT
LSME 221150Z 03012KT 5000 -SN OVC020 M02/M04 Q1011 RMK WHT
LSGG 221220Z 04013KT 9000 SCT020 BKN030 00/M05 Q1008 NOSIG
TAF LSGG 221125Z 2212/2318 04015G25KT 9000 BKN025 TX01/2215Z TNM02/2306Z TX02/2306Z 
     BECMG 2218/2221 03010KT
       
LSGC 221220Z 07014KT 5000 -SN OVC007 M06/M08 Q1006 WS R06
TAF LSGC 221125Z 2212/2221 05012G25KT 4500 -SN BKN008 
     TEMPO 2212/2215 6000 BKN012
       
LSZA 221220Z AUTO 18006KT 140V210 9999 BKN060 07/M05 Q1007
TAF LSZA 221125Z 2212/2221 VRB03KT 8000 FEW070 BKN080 
     TEMPO 2216/2221 4000 RA SCT010 BKN025
       
LSMM 221150Z VRB08G18KT 6000 -SN FEW010 BKN020 OVC045 M02/M06 Q1008 RMK WHT
LSMP 221150Z 05017KT 020V080 8000 SCT018 OVC021 M01/M05 Q1009 RMK WHT
LSZS 221220Z 36003KT 330V040 9999 FEW061 BKN095 M04/M10 Q1002 RMK L
TAF LSZS 221125Z 2212/2221 VRB05KT 9999 FEW015 BKN050 TXM03/2215Z 
     PROB40 2212/2218 8000 -SN BKN014
       
LSGS 221220Z 06003KT 010V100 9999 FEW080 BKN200 04/M07 Q1006
TAF LSGS 221125Z 2212/2221 25012KT 9999 FEW080 
     BECMG 2217/2219 VRB03KT
       
LSZR 221220Z 04013KT 9999 BKN031 00/M05 Q1011 NOSIG RMK H
TAF LSZR 221125Z 2212/2221 03012G25KT 9999 BKN025 
     PROB30 
     TEMPO 2212/2218 4000 -SN
       
LSZH 221220Z 04011KT 360V080 7000 FEW018 BKN021 M02/M07 Q1012 R88/19//// TEMPO 4000 -SN
TAF LSZH 221125Z 2212/2318 04010KT 7000 FEW015 BKN020 TXM01/2215Z TNM03/2306Z TXM00/2315Z 
     TEMPO 2212/2312 4000 -SN 
     PROB40 
     TEMPO 2302/2310 4000 BR BKN012